createdAt,value
2019-03-08T00:00:39.746Z,7.23
2019-03-08T00:01:39.797Z,7.26
2019-03-08T00:02:39.878Z,7.23
2019-03-08T00:03:39.886Z,7.29
2019-03-08T00:04:39.925Z,7.27
2019-03-08T00:05:39.974Z,7.34
2019-03-08T00:06:40.023Z,7.19
2019-03-08T00:07:40.103Z,7.20
2019-03-08T00:08:40.099Z,7.22
2019-03-08T00:09:40.163Z,7.23
2019-03-08T00:10:40.196Z,7.24
2019-03-08T00:11:40.243Z,7.24
2019-03-08T00:12:40.318Z,7.29
2019-03-08T00:13:40.329Z,7.19
2019-03-08T00:14:40.374Z,7.24
2019-03-08T00:15:40.493Z,7.24
2019-03-08T00:16:40.458Z,7.31
2019-03-08T00:17:40.512Z,7.34
2019-03-08T00:18:40.568Z,7.29
2019-03-08T00:19:40.581Z,7.27
2019-03-08T00:20:40.630Z,7.29
2019-03-08T00:21:40.666Z,7.32
2019-03-08T00:22:40.819Z,7.29
2019-03-08T00:23:40.758Z,7.27
2019-03-08T00:24:40.799Z,7.29
2019-03-08T00:25:40.844Z,7.31
2019-03-08T00:26:40.885Z,7.40
2019-03-08T00:27:40.948Z,7.42
2019-03-08T00:28:40.998Z,7.40
2019-03-08T00:29:41.016Z,7.29
2019-03-08T00:30:41.061Z,7.26
2019-03-08T00:31:41.109Z,7.22
2019-03-08T00:32:41.144Z,7.27
2019-03-08T00:33:41.218Z,7.27
2019-03-08T00:34:41.236Z,7.24
2019-03-08T00:35:41.286Z,7.31
2019-03-08T00:36:41.320Z,7.22
2019-03-08T00:37:41.364Z,7.20
2019-03-08T00:38:41.424Z,7.20
2019-03-08T00:39:41.458Z,7.13
2019-03-08T00:40:41.495Z,7.15
2019-03-08T00:41:41.534Z,7.26
2019-03-08T00:42:41.581Z,7.13
2019-03-08T00:43:41.651Z,7.07
2019-03-08T00:44:41.671Z,7.15
2019-03-08T00:45:41.718Z,7.15
2019-03-08T00:46:41.759Z,7.13
2019-03-08T00:47:43.450Z,7.19
2019-03-08T00:48:41.863Z,7.20
2019-03-08T00:49:41.884Z,7.19
2019-03-08T00:50:41.930Z,7.15
2019-03-08T00:51:41.983Z,7.24
2019-03-08T00:52:42.021Z,7.17
2019-03-08T00:53:42.083Z,7.15
2019-03-08T00:54:42.123Z,7.16
2019-03-08T00:55:42.144Z,7.08
2019-03-08T00:56:42.228Z,7.17
2019-03-08T00:57:42.646Z,7.16
2019-03-08T00:58:42.274Z,7.13
2019-03-08T00:59:42.354Z,7.05
2019-03-08T01:00:42.360Z,7.13
2019-03-08T01:01:42.406Z,7.07
2019-03-08T01:02:42.447Z,7.13
2019-03-08T01:03:42.491Z,7.09
2019-03-08T01:04:42.555Z,7.05
2019-03-08T01:05:42.577Z,7.02
2019-03-08T01:06:42.623Z,7.04
2019-03-08T01:07:42.706Z,7.04
2019-03-08T01:08:42.709Z,7.01
2019-03-08T01:09:42.775Z,7.02
2019-03-08T01:10:42.799Z,6.91
2019-03-08T01:11:42.856Z,6.95
2019-03-08T01:12:42.887Z,6.87
2019-03-08T01:13:42.966Z,6.95
2019-03-08T01:14:43.107Z,6.91
2019-03-08T01:15:43.011Z,7.05
2019-03-08T01:16:43.056Z,6.89
2019-03-08T01:17:43.108Z,6.91
2019-03-08T01:18:43.141Z,6.81
2019-03-08T01:19:43.206Z,6.87
2019-03-08T01:20:43.234Z,6.77
2019-03-08T01:21:43.276Z,6.80
2019-03-08T01:22:43.316Z,6.76
2019-03-08T01:23:43.360Z,6.84
2019-03-08T01:24:43.427Z,6.80
2019-03-08T01:25:43.467Z,6.79
2019-03-08T01:26:43.486Z,6.72
2019-03-08T01:27:43.531Z,6.71
2019-03-08T01:28:43.572Z,6.72
2019-03-08T01:29:43.620Z,6.66
2019-03-08T01:30:43.684Z,6.56
2019-03-08T01:31:43.703Z,6.65
2019-03-08T01:32:43.796Z,6.68
2019-03-08T01:33:43.793Z,6.72
2019-03-08T01:34:43.834Z,6.73
2019-03-08T01:35:43.905Z,6.69
2019-03-08T01:36:43.927Z,6.72
2019-03-08T01:37:43.966Z,6.76
2019-03-08T01:38:44.014Z,6.72
2019-03-08T01:39:44.155Z,6.69
2019-03-08T01:40:44.118Z,6.73
2019-03-08T01:41:44.144Z,6.72
2019-03-08T01:42:44.179Z,6.72
2019-03-08T01:43:44.232Z,6.68
2019-03-08T01:44:44.266Z,6.65
2019-03-08T01:45:44.328Z,6.66
2019-03-08T01:46:44.380Z,6.66
2019-03-08T01:47:44.398Z,6.63
2019-03-08T01:48:44.446Z,6.69
2019-03-08T01:49:44.480Z,6.66
2019-03-08T01:50:44.554Z,6.65
2019-03-08T01:51:44.586Z,6.59
2019-03-08T01:52:44.610Z,6.56
2019-03-08T01:53:44.653Z,6.56
2019-03-08T01:54:44.699Z,6.46
2019-03-08T01:55:44.738Z,6.46
2019-03-08T01:56:44.812Z,6.44
2019-03-08T01:57:44.853Z,6.46
2019-03-08T01:58:44.872Z,6.51
2019-03-08T01:59:44.914Z,6.50
2019-03-08T02:00:44.960Z,6.47
2019-03-08T02:01:45.023Z,6.40
2019-03-08T02:02:45.038Z,6.48
2019-03-08T02:03:45.101Z,6.47
2019-03-08T02:04:45.128Z,6.50
2019-03-08T02:05:45.173Z,6.47
2019-03-08T02:06:45.240Z,6.41
2019-03-08T02:07:45.259Z,6.38
2019-03-08T02:08:45.296Z,6.44
2019-03-08T02:09:45.342Z,6.43
2019-03-08T02:10:45.398Z,6.59
2019-03-08T02:11:45.450Z,6.51
2019-03-08T02:12:45.477Z,6.35
2019-03-08T02:13:45.515Z,6.40
2019-03-08T02:14:45.557Z,6.32
2019-03-08T02:15:45.651Z,6.30
2019-03-08T02:16:45.661Z,6.38
2019-03-08T02:17:45.689Z,6.36
2019-03-08T02:18:45.731Z,6.58
2019-03-08T02:19:45.771Z,6.90
2019-03-08T02:20:45.815Z,7.09
2019-03-08T02:21:45.883Z,7.13
2019-03-08T02:22:46.033Z,7.29
2019-03-08T02:23:45.943Z,7.32
2019-03-08T02:24:45.989Z,7.29
2019-03-08T02:25:46.044Z,7.31
2019-03-08T02:26:46.093Z,7.27
2019-03-08T02:27:46.152Z,7.32
2019-03-08T02:28:46.162Z,7.29
2019-03-08T02:29:46.204Z,7.24
2019-03-08T02:30:46.247Z,7.22
2019-03-08T02:31:46.336Z,7.22
2019-03-08T02:32:46.365Z,7.20
2019-03-08T02:33:46.400Z,7.27
2019-03-08T02:34:46.418Z,7.26
2019-03-08T02:35:46.470Z,7.26
2019-03-08T02:36:46.504Z,7.27
2019-03-08T02:37:46.569Z,7.15
2019-03-08T02:38:46.620Z,7.09
2019-03-08T02:39:46.648Z,7.01
2019-03-08T02:40:46.696Z,6.95
2019-03-08T02:41:46.731Z,6.91
2019-03-08T02:42:46.767Z,6.97
2019-03-08T02:43:46.844Z,6.89
2019-03-08T02:44:46.852Z,6.97
2019-03-08T02:45:46.911Z,6.97
2019-03-08T02:46:46.939Z,6.90
2019-03-08T02:47:46.985Z,6.95
2019-03-08T02:48:47.049Z,7.15
2019-03-08T02:49:47.076Z,7.29
2019-03-08T02:50:47.117Z,7.31
2019-03-08T02:51:47.155Z,7.49
2019-03-08T02:52:47.211Z,7.63
2019-03-08T02:53:47.262Z,7.62
2019-03-08T02:54:47.294Z,7.62
2019-03-08T02:55:47.329Z,7.75
2019-03-08T02:56:47.476Z,7.66
2019-03-08T02:57:47.417Z,7.75
2019-03-08T02:58:47.525Z,7.63
2019-03-08T02:59:47.505Z,7.60
2019-03-08T03:00:47.552Z,7.56
2019-03-08T03:01:47.596Z,7.60
2019-03-08T03:02:47.636Z,7.60
2019-03-08T03:03:47.719Z,7.66
2019-03-08T03:04:47.723Z,7.63
2019-03-08T03:05:47.773Z,7.56
2019-03-08T03:06:47.809Z,7.60
2019-03-08T03:07:47.858Z,7.58
2019-03-08T03:08:47.938Z,7.60
2019-03-08T03:09:47.942Z,7.75
2019-03-08T03:10:47.983Z,7.82
2019-03-08T03:11:48.034Z,7.94
2019-03-08T03:12:48.070Z,8.04
2019-03-08T03:13:48.141Z,8.17
2019-03-08T03:14:48.190Z,8.22
2019-03-08T03:15:48.205Z,8.22
2019-03-08T03:16:48.251Z,8.25
2019-03-08T03:17:48.295Z,8.15
2019-03-08T03:18:48.356Z,8.11
2019-03-08T03:19:48.401Z,8.14
2019-03-08T03:20:48.425Z,7.99
2019-03-08T03:21:48.470Z,7.92
2019-03-08T03:22:48.510Z,7.97
2019-03-08T03:23:48.554Z,8.08
2019-03-08T03:24:48.627Z,8.25
2019-03-08T03:25:48.650Z,8.30
2019-03-08T03:26:48.687Z,8.39
2019-03-08T03:27:48.735Z,8.39
2019-03-08T03:28:48.773Z,8.29
2019-03-08T03:29:48.859Z,8.33
2019-03-08T03:30:48.871Z,8.35
2019-03-08T03:31:48.905Z,8.30
2019-03-08T03:32:48.960Z,8.35
2019-03-08T03:33:48.991Z,8.32
2019-03-08T03:34:49.077Z,8.25
2019-03-08T03:35:49.080Z,8.39
2019-03-08T03:36:49.131Z,8.47
2019-03-08T03:37:49.169Z,8.54
2019-03-08T03:38:49.241Z,8.44
2019-03-08T03:39:49.281Z,8.44
2019-03-08T03:40:49.326Z,8.55
2019-03-08T03:41:49.345Z,8.47
2019-03-08T03:42:49.402Z,8.45
2019-03-08T03:43:49.431Z,8.42
2019-03-08T03:44:49.514Z,8.48
2019-03-08T03:45:49.523Z,8.47
2019-03-08T03:46:49.565Z,8.48
2019-03-08T03:47:49.613Z,8.53
2019-03-08T03:48:49.652Z,8.58
2019-03-08T03:49:49.733Z,8.62
2019-03-08T03:50:49.782Z,8.55
2019-03-08T03:51:49.784Z,8.54
2019-03-08T03:52:49.842Z,8.60
2019-03-08T03:53:49.881Z,8.55
2019-03-08T03:54:49.924Z,8.55
2019-03-08T03:55:50.000Z,8.66
2019-03-08T03:56:50.007Z,8.71
2019-03-08T03:57:50.116Z,8.53
2019-03-08T03:58:50.094Z,8.51
2019-03-08T03:59:50.137Z,8.51
2019-03-08T04:00:50.201Z,8.50
2019-03-08T04:01:50.228Z,8.53
2019-03-08T04:02:50.272Z,8.57
2019-03-08T04:03:50.318Z,8.62
2019-03-08T04:04:50.377Z,8.50
2019-03-08T04:05:50.437Z,8.66
2019-03-08T04:06:50.449Z,8.62
2019-03-08T04:07:50.493Z,8.62
2019-03-08T04:08:50.537Z,8.66
2019-03-08T04:09:50.583Z,8.60
2019-03-08T04:10:50.657Z,8.63
2019-03-08T04:11:50.676Z,8.53
2019-03-08T04:12:50.716Z,8.53
2019-03-08T04:13:50.766Z,8.44
2019-03-08T04:14:50.803Z,8.48
2019-03-08T04:15:50.881Z,8.45
2019-03-08T04:16:50.912Z,8.40
2019-03-08T04:17:50.937Z,8.44
2019-03-08T04:18:50.993Z,8.44
2019-03-08T04:19:51.028Z,8.44
2019-03-08T04:20:51.071Z,8.40
2019-03-08T04:21:51.132Z,8.44
2019-03-08T04:22:51.224Z,8.40
2019-03-08T04:23:51.204Z,8.48
2019-03-08T04:24:51.255Z,8.45
2019-03-08T04:25:51.291Z,8.45
2019-03-08T04:26:51.363Z,8.55
2019-03-08T04:27:51.390Z,8.57
2019-03-08T04:28:51.425Z,8.55
2019-03-08T04:29:51.607Z,8.60
2019-03-08T04:30:51.522Z,8.65
2019-03-08T04:31:51.583Z,8.57
2019-03-08T04:32:51.613Z,8.65
2019-03-08T04:33:51.645Z,8.58
2019-03-08T04:34:51.695Z,8.60
2019-03-08T04:35:51.734Z,8.53
2019-03-08T04:36:51.802Z,8.48
2019-03-08T04:37:51.842Z,8.45
2019-03-08T04:38:51.876Z,8.39
2019-03-08T04:39:51.918Z,8.48
2019-03-08T04:40:51.960Z,8.47
2019-03-08T04:41:52.022Z,8.42
2019-03-08T04:42:52.067Z,8.45
2019-03-08T04:43:52.088Z,8.44
2019-03-08T04:44:52.135Z,8.39
2019-03-08T04:45:52.180Z,8.44
2019-03-08T04:46:52.255Z,8.40
2019-03-08T04:47:52.348Z,8.42
2019-03-08T04:48:52.313Z,8.42
2019-03-08T04:49:52.357Z,8.45
2019-03-08T04:50:52.399Z,8.40
2019-03-08T04:51:52.443Z,8.45
2019-03-08T04:52:52.521Z,8.54
2019-03-08T04:53:52.549Z,8.53
2019-03-08T04:54:52.576Z,8.65
2019-03-08T04:55:52.631Z,8.68
2019-03-08T04:56:52.671Z,8.66
2019-03-08T04:57:52.732Z,8.66
2019-03-08T04:58:52.756Z,8.68
2019-03-08T04:59:52.807Z,8.62
2019-03-08T05:00:52.842Z,8.63
2019-03-08T05:01:52.918Z,8.62
2019-03-08T05:02:52.954Z,8.54
2019-03-08T05:03:53.071Z,8.58
2019-03-08T05:04:53.021Z,8.55
2019-03-08T05:05:53.077Z,8.55
2019-03-08T05:06:53.112Z,8.62
2019-03-08T05:07:53.164Z,8.72
2019-03-08T05:08:53.227Z,8.79
2019-03-08T05:09:53.247Z,8.78
2019-03-08T05:10:53.289Z,8.84
2019-03-08T05:11:53.331Z,8.78
2019-03-08T05:12:53.402Z,8.73
2019-03-08T05:13:53.419Z,8.60
2019-03-08T05:14:53.465Z,8.71
2019-03-08T05:15:53.511Z,8.69
2019-03-08T05:16:53.561Z,8.76
2019-03-08T05:17:53.630Z,8.73
2019-03-08T05:18:53.662Z,8.71
2019-03-08T05:19:53.692Z,8.73
2019-03-08T05:20:53.736Z,8.75
2019-03-08T05:21:53.812Z,8.75
2019-03-08T05:22:53.825Z,8.73
2019-03-08T05:23:53.887Z,8.63
2019-03-08T05:24:53.910Z,8.69
2019-03-08T05:25:53.953Z,8.65
2019-03-08T05:26:53.997Z,8.55
2019-03-08T05:27:54.044Z,8.66
2019-03-08T05:28:54.147Z,8.55
2019-03-08T05:29:54.135Z,8.62
2019-03-08T05:30:54.179Z,8.58
2019-03-08T05:31:54.220Z,8.57
2019-03-08T05:32:54.266Z,8.53
2019-03-08T05:33:54.340Z,8.50
2019-03-08T05:34:54.357Z,8.51
2019-03-08T05:35:54.405Z,8.51
2019-03-08T05:36:54.445Z,8.50
2019-03-08T05:37:54.484Z,8.53
2019-03-08T05:38:54.551Z,8.58
2019-03-08T05:39:54.582Z,8.54
2019-03-08T05:40:54.620Z,8.54
2019-03-08T05:41:54.662Z,8.48
2019-03-08T05:42:54.707Z,8.50
2019-03-08T05:43:54.782Z,8.50
2019-03-08T05:44:54.822Z,8.44
2019-03-08T05:45:54.866Z,8.50
2019-03-08T05:46:54.941Z,8.47
2019-03-08T05:47:54.937Z,8.40
2019-03-08T05:48:54.974Z,8.42
2019-03-08T05:49:55.057Z,8.37
2019-03-08T05:50:55.070Z,8.42
2019-03-08T05:51:55.106Z,8.35
2019-03-08T05:52:55.152Z,8.36
2019-03-08T05:53:55.297Z,8.36
2019-03-08T05:54:55.259Z,8.28
2019-03-08T05:55:55.301Z,8.26
2019-03-08T05:56:55.328Z,8.18
2019-03-08T05:57:55.379Z,8.22
2019-03-08T05:58:55.424Z,8.22
2019-03-08T05:59:55.481Z,8.29
2019-03-08T06:00:55.521Z,8.22
2019-03-08T06:01:55.556Z,8.29
2019-03-08T06:02:55.594Z,8.21
2019-03-08T06:03:55.645Z,8.15
2019-03-08T06:04:55.702Z,8.14
2019-03-08T06:05:55.741Z,8.12
2019-03-08T06:06:55.770Z,8.12
2019-03-08T06:07:55.829Z,8.02
2019-03-08T06:08:55.857Z,8.08
2019-03-08T06:09:55.907Z,8.07
2019-03-08T06:10:55.972Z,8.03
2019-03-08T06:11:56.028Z,7.97
2019-03-08T06:12:56.032Z,7.94
2019-03-08T06:13:56.078Z,7.97
2019-03-08T06:14:56.129Z,7.97
2019-03-08T06:15:56.195Z,7.92
2019-03-08T06:16:56.208Z,7.90
2019-03-08T06:17:56.538Z,7.96
2019-03-08T06:18:56.302Z,7.97
2019-03-08T06:19:56.344Z,7.87
2019-03-08T06:20:56.422Z,7.99
2019-03-08T06:21:56.436Z,7.99
2019-03-08T06:22:56.473Z,7.92
2019-03-08T06:23:56.535Z,7.93
2019-03-08T06:24:56.565Z,7.93
2019-03-08T06:25:56.635Z,7.90
2019-03-08T06:26:56.666Z,7.97
2019-03-08T06:27:56.699Z,7.94
2019-03-08T06:28:56.744Z,8.00
2019-03-08T06:29:56.791Z,7.94
2019-03-08T06:30:56.842Z,7.94
2019-03-08T06:31:56.911Z,8.02
2019-03-08T06:32:56.914Z,8.08
2019-03-08T06:33:56.958Z,8.07
2019-03-08T06:34:57.001Z,8.03
2019-03-08T06:35:57.046Z,7.97
2019-03-08T06:36:57.108Z,7.97
2019-03-08T06:37:57.143Z,8.02
2019-03-08T06:38:57.186Z,8.00
2019-03-08T06:39:57.223Z,8.00
2019-03-08T06:40:57.265Z,7.96
2019-03-08T06:41:57.353Z,7.90
2019-03-08T06:42:57.355Z,7.96
2019-03-08T06:43:57.405Z,7.89
2019-03-08T06:44:57.447Z,7.93
2019-03-08T06:45:57.499Z,7.87
2019-03-08T06:46:57.544Z,7.92
2019-03-08T06:47:57.602Z,7.87
2019-03-08T06:48:57.620Z,7.99
2019-03-08T06:49:57.662Z,7.94
2019-03-08T06:50:57.707Z,7.96
2019-03-08T06:51:57.756Z,7.97
2019-03-08T06:52:57.843Z,8.03
2019-03-08T06:53:57.841Z,8.03
2019-03-08T06:54:57.885Z,7.97
2019-03-08T06:55:57.929Z,8.02
2019-03-08T06:56:57.972Z,8.03
2019-03-08T06:57:58.038Z,7.96
2019-03-08T06:58:58.059Z,7.96
2019-03-08T06:59:58.107Z,7.96
2019-03-08T07:00:58.148Z,7.94
2019-03-08T07:01:58.196Z,7.92
2019-03-08T07:02:58.251Z,7.96
2019-03-08T07:03:58.278Z,7.94
2019-03-08T07:04:58.330Z,7.99
2019-03-08T07:05:58.371Z,7.93
2019-03-08T07:06:58.422Z,7.96
2019-03-08T07:07:58.477Z,7.93
2019-03-08T07:08:58.498Z,7.93
2019-03-08T07:09:58.546Z,7.96
2019-03-08T07:10:58.648Z,7.87
2019-03-08T07:11:58.636Z,7.81
2019-03-08T07:13:03.300Z,7.79
2019-03-08T07:13:58.731Z,7.81
2019-03-08T07:14:58.781Z,7.82
2019-03-08T07:15:58.823Z,7.89
2019-03-08T07:16:58.857Z,7.82
2019-03-08T07:17:58.946Z,7.89
2019-03-08T07:18:58.943Z,7.82
2019-03-08T07:19:58.991Z,7.84
2019-03-08T07:20:59.038Z,7.96
2019-03-08T07:21:59.081Z,7.96
2019-03-08T07:22:59.154Z,7.90
2019-03-08T07:23:59.167Z,7.87
2019-03-08T07:24:59.208Z,7.85
2019-03-08T07:25:59.250Z,7.84
2019-03-08T07:26:59.297Z,7.77
2019-03-08T07:27:59.419Z,7.84
2019-03-08T07:28:59.417Z,7.71
2019-03-08T07:29:59.446Z,7.63
2019-03-08T07:30:59.477Z,7.69
2019-03-08T07:31:59.518Z,7.78
2019-03-08T07:32:59.594Z,7.59
2019-03-08T07:33:59.613Z,7.53
2019-03-08T07:34:59.652Z,7.50
2019-03-08T07:35:59.762Z,7.44
2019-03-08T07:36:59.754Z,7.38
2019-03-08T07:37:59.809Z,7.45
2019-03-08T07:38:59.851Z,7.47
2019-03-08T07:39:59.874Z,7.53
2019-03-08T07:40:59.918Z,7.49
2019-03-08T07:41:59.962Z,7.49
2019-03-08T07:43:00.006Z,7.50
2019-03-08T07:44:00.070Z,7.49
2019-03-08T07:45:00.128Z,7.60
2019-03-08T07:46:00.142Z,7.52
2019-03-08T07:47:00.186Z,7.60
2019-03-08T07:48:00.223Z,7.60
2019-03-08T07:49:00.286Z,7.56
2019-03-08T07:50:00.339Z,7.63
2019-03-08T07:51:00.368Z,7.60
2019-03-08T07:52:00.404Z,7.59
2019-03-08T07:53:00.448Z,7.59
2019-03-08T07:54:00.538Z,7.71
2019-03-08T07:55:00.540Z,7.74
2019-03-08T07:56:00.586Z,7.84
2019-03-08T07:57:00.619Z,7.81
2019-03-08T07:58:00.667Z,7.87
2019-03-08T07:59:00.750Z,7.96
2019-03-08T08:00:00.766Z,7.92
2019-03-08T08:01:00.842Z,7.90
2019-03-08T08:02:00.857Z,7.96
2019-03-08T08:03:04.225Z,7.93
2019-03-08T08:04:00.961Z,7.97
2019-03-08T08:05:01.004Z,7.94
2019-03-08T08:06:01.041Z,7.96
2019-03-08T08:07:01.072Z,8.02
2019-03-08T08:08:01.109Z,8.03
2019-03-08T08:09:01.160Z,7.99
2019-03-08T08:10:01.261Z,7.93
2019-03-08T08:11:01.250Z,7.96
2019-03-08T08:12:01.286Z,7.93
2019-03-08T08:13:01.332Z,7.92
2019-03-08T08:14:01.375Z,7.93
2019-03-08T08:15:01.454Z,8.00
2019-03-08T08:16:01.467Z,7.99
2019-03-08T08:17:01.508Z,7.97
2019-03-08T08:18:01.555Z,7.94
2019-03-08T08:19:01.637Z,7.96
2019-03-08T08:20:01.662Z,7.92
2019-03-08T08:21:01.710Z,7.90
2019-03-08T08:22:01.738Z,7.93
2019-03-08T08:23:01.792Z,7.99
2019-03-08T08:24:01.824Z,7.92
2019-03-08T08:25:01.864Z,7.96
2019-03-08T08:26:01.957Z,7.99
2019-03-08T08:27:01.973Z,8.02
2019-03-08T08:28:02.000Z,8.07
2019-03-08T08:29:02.044Z,8.10
2019-03-08T08:30:02.088Z,8.07
2019-03-08T08:31:02.160Z,8.07
2019-03-08T08:32:02.180Z,8.15
2019-03-08T08:33:02.229Z,8.22
2019-03-08T08:34:02.274Z,8.12
2019-03-08T08:35:02.316Z,8.20
2019-03-08T08:36:02.376Z,8.28
2019-03-08T08:37:02.402Z,8.33
2019-03-08T08:38:02.455Z,8.30
2019-03-08T08:39:02.491Z,8.29
2019-03-08T08:40:02.533Z,8.25
2019-03-08T08:41:02.607Z,8.26
2019-03-08T08:42:02.648Z,8.22
2019-03-08T08:43:02.668Z,8.32
2019-03-08T08:44:02.712Z,8.21
2019-03-08T08:45:02.762Z,8.25
2019-03-08T08:46:02.823Z,8.29
2019-03-08T08:47:02.872Z,8.22
2019-03-08T08:48:02.908Z,8.30
2019-03-08T08:49:03.809Z,8.26
2019-03-08T08:50:02.986Z,8.33
2019-03-08T08:51:03.025Z,8.26
2019-03-08T08:52:03.103Z,8.26
2019-03-08T08:53:03.112Z,8.20
2019-03-08T08:54:03.162Z,8.30
2019-03-08T08:55:03.220Z,8.25
2019-03-08T08:56:03.264Z,8.26
2019-03-08T08:57:03.328Z,8.12
2019-03-08T08:58:03.339Z,8.28
2019-03-08T08:59:03.385Z,8.21
2019-03-08T09:00:03.445Z,8.11
2019-03-08T09:01:03.483Z,8.20
2019-03-08T09:02:03.553Z,8.17
2019-03-08T09:03:03.569Z,8.25
2019-03-08T09:04:03.622Z,8.25
2019-03-08T09:05:03.659Z,8.20
2019-03-08T09:06:03.697Z,8.21
2019-03-08T09:07:03.887Z,8.18
2019-03-08T09:08:03.787Z,8.08
2019-03-08T09:09:03.835Z,8.11
2019-03-08T09:10:03.873Z,8.11
2019-03-08T09:11:03.925Z,8.15
2019-03-08T09:12:03.987Z,8.08
2019-03-08T09:13:04.023Z,8.14
2019-03-08T09:14:04.056Z,8.11
2019-03-08T09:15:04.104Z,8.08
2019-03-08T09:16:04.144Z,8.12
2019-03-08T09:17:04.185Z,8.08
2019-03-08T09:18:04.249Z,8.08
2019-03-08T09:19:04.280Z,8.12
2019-03-08T09:20:04.323Z,8.08
2019-03-08T09:21:04.383Z,8.04
2019-03-08T09:22:04.413Z,8.03
2019-03-08T09:23:04.473Z,8.10
2019-03-08T09:24:04.503Z,8.14
2019-03-08T09:25:04.546Z,8.18
2019-03-08T09:26:04.600Z,8.29
2019-03-08T09:27:04.632Z,8.29
2019-03-08T09:28:04.708Z,8.32
2019-03-08T09:29:04.730Z,8.33
2019-03-08T09:30:04.775Z,8.35
2019-03-08T09:31:04.810Z,8.29
2019-03-08T09:32:04.957Z,8.36
2019-03-08T09:33:04.942Z,8.33
2019-03-08T09:34:04.949Z,8.32
2019-03-08T09:35:04.992Z,8.25
2019-03-08T09:36:05.038Z,8.21
2019-03-08T09:37:05.077Z,8.30
2019-03-08T09:38:05.164Z,8.22
2019-03-08T09:39:05.167Z,8.26
2019-03-08T09:40:05.228Z,8.20
2019-03-08T09:41:05.255Z,8.29
2019-03-08T09:42:05.298Z,8.28
2019-03-08T09:43:05.382Z,8.22
2019-03-08T09:44:05.395Z,8.25
2019-03-08T09:45:05.433Z,8.28
2019-03-08T09:46:05.486Z,8.33
2019-03-08T09:47:05.534Z,8.30
2019-03-08T09:48:05.597Z,8.40
2019-03-08T09:49:05.635Z,8.36
2019-03-08T09:50:05.685Z,8.39
2019-03-08T09:51:05.709Z,8.35
2019-03-08T09:52:05.759Z,8.35
2019-03-08T09:53:05.814Z,8.29
2019-03-08T09:54:05.860Z,8.30
2019-03-08T09:55:05.879Z,8.32
2019-03-08T09:56:05.931Z,8.26
2019-03-08T09:57:05.976Z,8.28
2019-03-08T09:58:06.014Z,8.33
2019-03-08T09:59:06.082Z,8.26
2019-03-08T10:00:06.109Z,8.32
2019-03-08T10:01:06.148Z,8.26
2019-03-08T10:02:06.199Z,8.22
2019-03-08T10:03:06.239Z,8.20
2019-03-08T10:04:06.301Z,8.25
2019-03-08T10:05:06.356Z,8.29
2019-03-08T10:06:06.395Z,8.22
2019-03-08T10:07:06.419Z,8.25
2019-03-08T10:08:06.469Z,8.29
2019-03-08T10:09:06.510Z,8.39
2019-03-08T10:10:06.569Z,8.37
2019-03-08T10:11:06.600Z,8.42
2019-03-08T10:12:06.642Z,8.42
2019-03-08T10:13:06.687Z,8.51
2019-03-08T10:14:06.732Z,8.53
2019-03-08T10:15:06.810Z,8.63
2019-03-08T10:16:06.818Z,8.79
2019-03-08T10:17:06.871Z,8.86
2019-03-08T10:18:06.910Z,8.91
2019-03-08T10:19:06.963Z,8.84
2019-03-08T10:20:07.037Z,8.84
2019-03-08T10:21:07.051Z,8.90
2019-03-08T10:22:07.096Z,8.84
2019-03-08T10:23:07.140Z,8.81
2019-03-08T10:24:07.182Z,8.69
2019-03-08T10:25:07.267Z,8.75
2019-03-08T10:26:07.292Z,8.65
2019-03-08T10:27:07.330Z,8.57
2019-03-08T10:28:07.359Z,8.47
2019-03-08T10:29:07.413Z,8.53
2019-03-08T10:30:07.450Z,8.45
2019-03-08T10:31:07.671Z,8.42
2019-03-08T10:32:07.578Z,8.42
2019-03-08T10:33:07.589Z,8.35
2019-03-08T10:34:07.638Z,8.37
2019-03-08T10:35:07.679Z,8.28
2019-03-08T10:36:07.777Z,8.30
2019-03-08T10:37:07.779Z,8.36
2019-03-08T10:38:07.926Z,8.32
2019-03-08T10:39:07.853Z,8.20
2019-03-08T10:40:07.895Z,8.30
2019-03-08T10:41:07.977Z,8.25
2019-03-08T10:42:08.008Z,8.26
2019-03-08T10:43:08.033Z,8.28
2019-03-08T10:44:11.037Z,8.25
2019-03-08T10:45:08.129Z,8.20
2019-03-08T10:46:15.567Z,8.35
2019-03-08T10:47:08.215Z,8.33
2019-03-08T10:48:08.265Z,8.32
2019-03-08T10:49:08.300Z,8.18
2019-03-08T10:50:08.351Z,8.26
2019-03-08T10:51:08.433Z,8.21
2019-03-08T10:52:17.106Z,8.26
2019-03-08T10:53:08.477Z,8.22
2019-03-08T10:54:08.524Z,8.26
2019-03-08T10:55:08.575Z,8.26
2019-03-08T10:56:08.639Z,8.29
2019-03-08T10:57:08.686Z,8.26
2019-03-08T10:58:08.705Z,8.22
2019-03-08T10:59:08.757Z,8.22
2019-03-08T11:00:08.791Z,8.26
2019-03-08T11:01:08.844Z,8.29
2019-03-08T11:02:08.929Z,8.33
2019-03-08T11:03:08.981Z,8.28
2019-03-08T11:04:08.971Z,8.33
2019-03-08T11:05:09.011Z,8.37
2019-03-08T11:06:09.063Z,8.30
2019-03-08T11:07:09.130Z,8.30
2019-03-08T11:08:09.170Z,8.37
2019-03-08T11:09:09.190Z,8.32
2019-03-08T11:10:09.243Z,8.29
2019-03-08T11:11:09.280Z,8.26
2019-03-08T11:12:09.362Z,8.26
2019-03-08T11:13:09.377Z,8.26
2019-03-08T11:14:09.422Z,8.28
2019-03-08T11:15:09.463Z,8.28
2019-03-08T11:16:09.512Z,8.40
2019-03-08T11:17:09.588Z,8.48
2019-03-08T11:18:09.591Z,8.45
2019-03-08T11:19:09.638Z,8.55
2019-03-08T11:20:09.698Z,8.71
2019-03-08T11:21:09.725Z,8.84
2019-03-08T11:22:09.806Z,8.84
2019-03-08T11:23:09.851Z,8.83
2019-03-08T11:24:09.860Z,8.93
2019-03-08T11:25:09.951Z,8.94
2019-03-08T11:26:09.949Z,9.10
2019-03-08T11:27:10.006Z,9.21
2019-03-08T11:28:10.129Z,9.28
2019-03-08T11:29:10.086Z,9.31
2019-03-08T11:30:10.132Z,9.30
2019-03-08T11:31:11.786Z,9.21
2019-03-08T11:32:10.225Z,9.34
2019-03-08T11:33:10.316Z,9.30
2019-03-08T11:34:10.325Z,9.46
2019-03-08T11:35:10.369Z,9.56
2019-03-08T11:36:10.412Z,9.61
2019-03-08T11:37:10.458Z,9.63
2019-03-08T11:38:10.525Z,9.76
2019-03-08T11:39:10.579Z,9.89
2019-03-08T11:40:10.604Z,10.00
2019-03-08T11:41:12.948Z,10.01
2019-03-08T11:42:10.691Z,9.93
2019-03-08T11:43:10.728Z,9.99
2019-03-08T11:44:10.859Z,10.12
2019-03-08T11:45:10.831Z,10.47
2019-03-08T11:46:10.886Z,10.36
2019-03-08T11:47:10.912Z,10.43
2019-03-08T11:48:10.965Z,10.42
2019-03-08T11:49:11.033Z,10.25
2019-03-08T11:50:11.076Z,10.15
2019-03-08T11:51:11.202Z,10.03
2019-03-08T11:52:11.151Z,9.96
2019-03-08T11:53:11.193Z,10.06
2019-03-08T11:54:11.283Z,10.17
2019-03-08T11:55:11.290Z,10.21
2019-03-08T11:56:11.343Z,10.36
2019-03-08T11:57:11.427Z,10.36
2019-03-08T11:58:11.437Z,10.42
2019-03-08T11:59:11.516Z,10.34
2019-03-08T12:00:11.527Z,10.36
2019-03-08T12:01:11.581Z,10.25
2019-03-08T12:02:11.622Z,10.22
2019-03-08T12:03:11.674Z,10.14
2019-03-08T12:04:11.754Z,10.03
2019-03-08T12:05:11.762Z,10.04
2019-03-08T12:06:11.814Z,10.01
2019-03-08T12:07:11.868Z,9.99
2019-03-08T12:08:11.912Z,9.99
2019-03-08T12:09:12.015Z,9.93
2019-03-08T12:10:12.003Z,9.88
2019-03-08T12:11:12.049Z,9.83
2019-03-08T12:12:12.093Z,9.78
2019-03-08T12:13:12.141Z,9.83
2019-03-08T12:14:12.208Z,9.83
2019-03-08T12:15:12.260Z,9.81
2019-03-08T12:16:12.289Z,9.73
2019-03-08T12:17:12.327Z,9.61
2019-03-08T12:18:12.378Z,9.64
2019-03-08T12:19:12.418Z,9.53
2019-03-08T12:20:12.487Z,9.49
2019-03-08T12:21:12.513Z,9.48
2019-03-08T12:22:12.568Z,9.50
2019-03-08T12:23:12.749Z,9.49
2019-03-08T12:24:12.664Z,9.43
2019-03-08T12:25:12.725Z,9.38
2019-03-08T12:26:12.774Z,9.39
2019-03-08T12:27:12.788Z,9.21
2019-03-08T12:28:12.845Z,9.23
2019-03-08T12:29:12.884Z,9.18
2019-03-08T12:30:12.940Z,9.27
2019-03-08T12:31:13.027Z,9.21
2019-03-08T12:32:13.032Z,9.28
2019-03-08T12:33:13.080Z,9.31
2019-03-08T12:34:13.120Z,9.34
2019-03-08T12:35:13.158Z,9.38
2019-03-08T12:36:13.251Z,9.31
2019-03-08T12:37:13.269Z,9.35
2019-03-08T12:38:13.316Z,9.31
2019-03-08T12:39:13.344Z,9.23
2019-03-08T12:40:13.390Z,9.25
2019-03-08T12:41:13.483Z,9.21
2019-03-08T12:42:13.478Z,9.16
2019-03-08T12:43:13.534Z,9.21
2019-03-08T12:44:13.583Z,9.15
2019-03-08T12:45:13.652Z,9.15
2019-03-08T12:46:13.684Z,9.05
2019-03-08T12:47:13.715Z,9.05
2019-03-08T12:48:13.781Z,9.13
2019-03-08T12:49:13.803Z,9.20
2019-03-08T12:50:13.849Z,9.20
2019-03-08T12:51:13.901Z,9.25
2019-03-08T12:52:13.973Z,9.21
2019-03-08T12:53:14.014Z,9.30
2019-03-08T12:54:14.826Z,9.39
2019-03-08T12:55:14.073Z,9.32
2019-03-08T12:56:14.127Z,9.39
2019-03-08T12:57:14.178Z,9.40
2019-03-08T12:58:14.254Z,9.27
2019-03-08T12:59:14.258Z,9.24
2019-03-08T13:00:14.309Z,9.16
2019-03-08T13:01:14.354Z,9.05
2019-03-08T13:02:14.399Z,9.05
2019-03-08T13:03:14.473Z,8.90
2019-03-08T13:04:14.488Z,8.84
2019-03-08T13:05:14.548Z,8.81
2019-03-08T13:06:14.592Z,8.72
2019-03-08T13:07:14.632Z,8.84
2019-03-08T13:08:14.715Z,8.81
2019-03-08T13:09:14.714Z,8.83
2019-03-08T13:10:14.769Z,8.84
2019-03-08T13:11:14.813Z,8.84
2019-03-08T13:12:14.856Z,8.86
2019-03-08T13:13:14.939Z,8.86
2019-03-08T13:14:14.942Z,8.81
2019-03-08T13:15:14.994Z,8.86
2019-03-08T13:16:15.034Z,8.81
2019-03-08T13:17:15.083Z,8.86
2019-03-08T13:18:15.150Z,8.83